createdAt,value
2023-03-02T00:00:58.939Z,1.70
2023-03-02T00:03:28.996Z,1.70
2023-03-02T00:05:57.744Z,1.50
2023-03-02T00:08:25.608Z,1.60
2023-03-02T00:10:54.494Z,1.50
2023-03-02T00:13:22.789Z,1.40
2023-03-02T00:15:50.720Z,1.40
2023-03-02T00:18:18.479Z,1.40
2023-03-02T00:20:47.587Z,1.40
2023-03-02T00:23:16.873Z,1.30
2023-03-02T00:25:44.615Z,1.30
2023-03-02T00:28:12.400Z,1.30
2023-03-02T00:30:40.499Z,1.20
2023-03-02T00:33:08.241Z,1.30
2023-03-02T00:35:39.028Z,1.20
2023-03-02T00:38:08.502Z,1.00
2023-03-02T00:40:36.729Z,0.90
2023-03-02T00:43:04.663Z,0.80
2023-03-02T00:45:32.374Z,0.70
2023-03-02T00:48:00.110Z,0.70
2023-03-02T00:50:27.843Z,0.60
2023-03-02T00:52:55.577Z,0.70
2023-03-02T00:55:24.633Z,0.70
2023-03-02T00:57:55.804Z,0.80
2023-03-02T01:00:24.705Z,0.70
2023-03-02T01:02:52.499Z,0.60
2023-03-02T01:05:20.379Z,0.70
2023-03-02T01:07:48.115Z,0.70
2023-03-02T01:10:16.453Z,0.90
2023-03-02T01:12:45.531Z,0.90
2023-03-02T01:15:13.609Z,0.90
2023-03-02T01:17:42.919Z,0.90
2023-03-02T01:20:11.965Z,0.70
2023-03-02T01:22:39.746Z,0.60
2023-03-02T01:25:07.856Z,0.60
2023-03-02T01:27:35.643Z,0.60
2023-03-02T01:30:05.709Z,0.80
2023-03-02T01:32:33.508Z,0.80
2023-03-02T01:35:01.305Z,0.80
2023-03-02T01:37:29.049Z,0.70
2023-03-02T01:39:56.737Z,0.60
2023-03-02T01:42:24.606Z,0.70
2023-03-02T01:44:57.030Z,0.70
2023-03-02T01:47:29.317Z,0.80
2023-03-02T01:49:59.871Z,0.80
2023-03-02T01:52:29.110Z,0.90
2023-03-02T01:55:00.052Z,0.90
2023-03-02T01:57:31.815Z,0.70
2023-03-02T02:00:06.533Z,0.70
2023-03-02T02:02:36.344Z,0.80
2023-03-02T02:05:04.921Z,0.90
2023-03-02T02:07:32.799Z,0.90
2023-03-02T02:10:01.600Z,0.90
2023-03-02T02:12:29.368Z,0.70
2023-03-02T02:15:00.614Z,0.60
2023-03-02T02:17:29.625Z,0.40
2023-03-02T02:20:07.779Z,0.40
2023-03-02T02:22:48.769Z,0.10
2023-03-02T02:25:39.749Z,-0.10
2023-03-02T02:28:15.155Z,0.00
2023-03-02T02:30:44.462Z,0.10
2023-03-02T02:33:17.760Z,0.10
2023-03-02T02:35:47.406Z,0.20
2023-03-02T02:38:19.275Z,0.30
2023-03-02T02:40:51.363Z,0.40
2023-03-02T02:43:22.220Z,0.40
2023-03-02T02:45:55.043Z,0.50
2023-03-02T02:48:25.276Z,0.40
2023-03-02T02:50:59.978Z,0.40
2023-03-02T02:53:31.054Z,0.30
2023-03-02T02:56:00.135Z,0.20
2023-03-02T02:58:34.830Z,0.40
2023-03-02T03:01:03.295Z,0.30
2023-03-02T03:03:33.682Z,0.10
2023-03-02T03:06:03.895Z,0.20
2023-03-02T03:08:57.433Z,0.20
2023-03-02T03:11:28.492Z,0.40
2023-03-02T03:14:05.558Z,0.30
2023-03-02T03:16:34.761Z,0.50
2023-03-02T03:19:08.977Z,0.40
2023-03-02T03:21:37.113Z,0.50
2023-03-02T03:24:05.262Z,0.40
2023-03-02T03:26:33.336Z,0.30
2023-03-02T03:29:05.314Z,0.50
2023-03-02T03:31:33.279Z,0.50
2023-03-02T03:34:01.260Z,0.50
2023-03-02T03:36:29.801Z,0.50
2023-03-02T03:38:58.425Z,0.50
2023-03-02T03:41:26.871Z,0.40
2023-03-02T03:43:54.734Z,0.60
2023-03-02T03:46:24.097Z,0.60
2023-03-02T03:48:51.967Z,0.50
2023-03-02T03:51:20.000Z,0.60
2023-03-02T03:53:59.812Z,0.40
2023-03-02T03:56:28.094Z,0.30
2023-03-02T03:59:06.128Z,0.10
2023-03-02T04:01:37.155Z,-0.10
2023-03-02T04:04:06.306Z,-0.20
2023-03-02T04:06:34.430Z,-0.20
2023-03-02T04:09:04.988Z,-0.20
2023-03-02T04:11:33.179Z,-0.10
2023-03-02T04:14:00.971Z,-0.10
2023-03-02T04:16:29.437Z,-0.10
2023-03-02T04:18:59.267Z,-0.10
2023-03-02T04:21:27.295Z,-0.10
2023-03-02T04:23:56.382Z,-0.10
2023-03-02T04:26:26.110Z,-0.20
2023-03-02T04:28:53.849Z,-0.10
2023-03-02T04:31:21.637Z,-0.10
2023-03-02T04:33:49.403Z,0.00
2023-03-02T04:36:19.521Z,0.10
2023-03-02T04:38:47.890Z,0.10
2023-03-02T04:41:15.839Z,0.10
2023-03-02T04:43:43.602Z,0.10
2023-03-02T04:46:14.810Z,0.20
2023-03-02T04:48:42.673Z,0.20
2023-03-02T04:51:21.228Z,0.10
2023-03-02T04:53:48.944Z,0.10
2023-03-02T04:56:16.691Z,0.20
2023-03-02T04:58:44.424Z,0.10
2023-03-02T05:01:12.636Z,0.00
2023-03-02T05:03:40.417Z,0.10
2023-03-02T05:06:08.841Z,0.20
2023-03-02T05:08:38.751Z,0.30
2023-03-02T05:11:08.697Z,0.40
2023-03-02T05:13:36.873Z,0.40
2023-03-02T05:16:05.095Z,0.30
2023-03-02T05:18:32.892Z,0.20
2023-03-02T05:21:00.643Z,0.30
2023-03-02T05:23:31.503Z,0.10
2023-03-02T05:26:00.624Z,0.00
2023-03-02T05:28:28.764Z,0.00
2023-03-02T05:30:56.497Z,0.00
2023-03-02T05:33:24.238Z,0.00
2023-03-02T05:35:52.026Z,-0.10
2023-03-02T05:38:19.807Z,-0.30
2023-03-02T05:40:48.304Z,-0.50
2023-03-02T05:43:20.946Z,-0.50
2023-03-02T05:45:48.782Z,-0.30
2023-03-02T05:48:17.202Z,-0.20
2023-03-02T05:50:45.093Z,-0.20
2023-03-02T05:53:12.978Z,-0.30
2023-03-02T05:55:40.702Z,-0.20
2023-03-02T05:58:12.606Z,-0.30
2023-03-02T06:00:41.865Z,-0.40
2023-03-02T06:03:09.789Z,-0.40
2023-03-02T06:05:37.814Z,-0.30
2023-03-02T06:08:06.649Z,-0.20
2023-03-02T06:10:35.046Z,-0.30
2023-03-02T06:13:02.791Z,-0.40
2023-03-02T06:15:30.629Z,-0.30
2023-03-02T06:17:59.821Z,-0.20
2023-03-02T06:20:27.794Z,-0.10
2023-03-02T06:22:55.872Z,0.00
2023-03-02T06:25:25.603Z,-0.10
2023-03-02T06:27:53.890Z,-0.10
2023-03-02T06:30:24.193Z,-0.10
2023-03-02T06:32:52.186Z,0.00
2023-03-02T06:35:21.806Z,-0.20
2023-03-02T06:37:49.553Z,-0.30
2023-03-02T06:40:17.421Z,-0.20
2023-03-02T06:42:45.133Z,-0.20
2023-03-02T06:45:13.063Z,-0.10
2023-03-02T06:47:40.845Z,-0.10
2023-03-02T06:50:09.945Z,0.00
2023-03-02T06:52:39.040Z,-0.10
2023-03-02T06:55:07.990Z,-0.10
2023-03-02T06:57:35.779Z,0.00
2023-03-02T07:00:09.473Z,0.00
2023-03-02T07:02:37.327Z,0.00
2023-03-02T07:05:05.763Z,0.10
2023-03-02T07:07:33.438Z,0.00
2023-03-02T07:10:02.568Z,0.00
2023-03-02T07:12:30.263Z,-0.10
2023-03-02T07:14:57.994Z,-0.10
2023-03-02T07:17:25.698Z,-0.10
2023-03-02T07:19:53.464Z,-0.10
2023-03-02T07:22:21.204Z,-0.10
2023-03-02T07:24:48.927Z,-0.10
2023-03-02T07:27:17.966Z,-0.10
2023-03-02T07:29:45.687Z,-0.10
2023-03-02T07:32:13.430Z,0.00
2023-03-02T07:34:41.241Z,0.10
2023-03-02T07:37:09.133Z,0.30
2023-03-02T07:39:36.858Z,0.40
2023-03-02T07:42:06.993Z,0.50
2023-03-02T07:44:36.395Z,0.50
2023-03-02T07:47:04.405Z,0.60
2023-03-02T07:49:32.811Z,0.70
2023-03-02T07:52:00.522Z,0.80
2023-03-02T07:54:30.360Z,0.90
2023-03-02T07:56:58.291Z,0.90
2023-03-02T07:59:26.112Z,0.90
2023-03-02T08:01:55.253Z,0.90
2023-03-02T08:04:23.044Z,1.00
2023-03-02T08:06:50.798Z,1.00
2023-03-02T08:09:18.924Z,1.10
2023-03-02T08:11:47.715Z,1.10
2023-03-02T08:14:15.539Z,1.10
2023-03-02T08:16:43.309Z,1.10
2023-03-02T08:19:12.853Z,1.10
2023-03-02T08:21:40.869Z,1.30
2023-03-02T08:24:09.339Z,1.40
2023-03-02T08:26:37.058Z,1.50
2023-03-02T08:29:05.132Z,1.50
2023-03-02T08:31:33.594Z,1.50
2023-03-02T08:34:01.674Z,1.60
2023-03-02T08:36:30.928Z,1.60
2023-03-02T08:38:58.806Z,1.70
2023-03-02T08:41:27.125Z,1.90
2023-03-02T08:43:55.062Z,2.10
2023-03-02T08:46:23.292Z,2.30
2023-03-02T08:48:51.660Z,2.30
2023-03-02T08:51:21.237Z,2.30
2023-03-02T08:53:52.352Z,2.30
2023-03-02T08:56:22.229Z,2.50
2023-03-02T08:58:51.128Z,2.60
2023-03-02T09:01:20.473Z,2.50
2023-03-02T09:03:48.302Z,2.50
2023-03-02T09:06:16.082Z,2.60
2023-03-02T09:08:44.376Z,2.60
2023-03-02T09:11:13.584Z,2.80
2023-03-02T09:13:41.673Z,2.80
2023-03-02T09:16:09.747Z,2.80
2023-03-02T09:18:37.690Z,3.00
2023-03-02T09:21:06.283Z,3.00
2023-03-02T09:23:35.401Z,3.00
2023-03-02T09:26:03.502Z,3.20
2023-03-02T09:28:33.115Z,3.20
2023-03-02T09:31:04.785Z,3.30
2023-03-02T09:33:33.274Z,3.40
2023-03-02T09:36:01.614Z,3.40
2023-03-02T09:38:29.521Z,3.50
2023-03-02T09:41:22.450Z,3.70
2023-03-02T09:44:01.628Z,3.90
2023-03-02T09:46:34.904Z,3.80
2023-03-02T09:49:15.289Z,4.00
2023-03-02T09:51:48.385Z,4.10
2023-03-02T09:54:20.624Z,4.10
2023-03-02T09:56:51.276Z,4.10
2023-03-02T09:59:26.975Z,4.20
2023-03-02T10:02:01.311Z,4.30
2023-03-02T10:04:32.034Z,4.50
2023-03-02T10:07:10.692Z,4.60
2023-03-02T10:09:38.712Z,4.60
2023-03-02T10:12:19.218Z,4.60
2023-03-02T10:14:55.643Z,4.80
2023-03-02T10:17:38.017Z,5.00
2023-03-02T10:20:11.708Z,5.20
2023-03-02T10:22:45.404Z,5.30
2023-03-02T10:25:25.947Z,5.50
2023-03-02T10:27:58.359Z,5.80
2023-03-02T10:30:31.265Z,5.90
2023-03-02T10:33:03.137Z,6.00
2023-03-02T10:35:32.109Z,6.30
2023-03-02T10:38:10.782Z,6.30
2023-03-02T10:40:42.455Z,6.40
2023-03-02T10:43:17.945Z,6.50
2023-03-02T10:45:58.399Z,6.50
2023-03-02T10:48:26.134Z,6.50
2023-03-02T10:50:55.676Z,6.80
2023-03-02T10:53:23.641Z,6.90
2023-03-02T10:55:53.988Z,7.00
2023-03-02T10:58:26.378Z,7.20
2023-03-02T11:01:00.322Z,7.40
2023-03-02T11:03:29.348Z,7.60
2023-03-02T11:05:58.727Z,7.50
2023-03-02T11:08:28.937Z,7.30
2023-03-02T11:11:00.926Z,7.20
2023-03-02T11:13:31.832Z,6.90
2023-03-02T11:16:02.867Z,6.90
2023-03-02T11:18:35.501Z,6.80
2023-03-02T11:21:05.922Z,6.60
2023-03-02T11:23:46.148Z,6.60
2023-03-02T11:26:21.857Z,6.60
2023-03-02T11:28:55.213Z,6.80
2023-03-02T11:31:34.579Z,6.70
2023-03-02T11:34:25.354Z,7.00
2023-03-02T11:37:14.766Z,7.00
2023-03-02T11:39:59.347Z,7.10
2023-03-02T11:42:31.755Z,6.80
2023-03-02T11:45:03.385Z,6.90
2023-03-02T11:47:34.587Z,7.10
2023-03-02T11:50:05.994Z,7.20
2023-03-02T11:52:37.439Z,7.30
2023-03-02T11:55:15.160Z,7.50
2023-03-02T11:57:49.429Z,7.80
2023-03-02T12:00:28.084Z,7.70
2023-03-02T12:03:05.705Z,7.80
2023-03-02T12:05:36.558Z,8.10
2023-03-02T12:08:06.965Z,8.40
2023-03-02T12:10:38.667Z,8.50
2023-03-02T12:13:19.220Z,8.50
2023-03-02T12:15:50.071Z,8.90
2023-03-02T12:18:30.980Z,8.90
2023-03-02T12:21:07.544Z,8.90
2023-03-02T12:23:37.296Z,9.20
2023-03-02T12:26:09.248Z,9.50
2023-03-02T12:28:39.800Z,9.70
2023-03-02T12:31:10.990Z,9.80
2023-03-02T12:33:48.381Z,9.60
2023-03-02T12:36:20.967Z,9.50
2023-03-02T12:39:00.802Z,9.70
2023-03-02T12:41:41.499Z,9.60
2023-03-02T12:44:27.738Z,9.60
2023-03-02T12:46:56.284Z,9.60
2023-03-02T12:49:45.538Z,9.80
2023-03-02T12:52:24.123Z,10.00
2023-03-02T12:55:02.024Z,9.80
2023-03-02T12:57:29.955Z,9.90
2023-03-02T13:00:00.147Z,9.80
2023-03-02T13:02:29.481Z,9.70
2023-03-02T13:05:01.181Z,9.80
2023-03-02T13:07:35.150Z,10.20
2023-03-02T13:10:07.466Z,10.20
2023-03-02T13:12:36.988Z,10.20
2023-03-02T13:15:14.520Z,10.30
2023-03-02T13:17:42.528Z,10.30
2023-03-02T13:20:14.986Z,10.50
2023-03-02T13:22:43.042Z,10.20
2023-03-02T13:25:23.804Z,10.20
2023-03-02T13:27:56.731Z,10.50
2023-03-02T13:30:27.965Z,10.50
2023-03-02T13:33:01.629Z,10.50
2023-03-02T13:35:32.423Z,10.10
2023-03-02T13:38:03.726Z,10.20
2023-03-02T13:40:44.656Z,10.30
2023-03-02T13:43:34.495Z,10.00
2023-03-02T13:46:04.136Z,9.90
2023-03-02T13:48:32.488Z,10.10
2023-03-02T13:51:03.728Z,10.20
2023-03-02T13:53:34.682Z,10.20
2023-03-02T13:56:02.824Z,10.40
2023-03-02T13:58:35.138Z,10.50
2023-03-02T14:01:04.891Z,10.30
2023-03-02T14:03:32.847Z,10.10
2023-03-02T14:06:01.985Z,10.10
2023-03-02T14:08:29.781Z,10.00
2023-03-02T14:10:59.648Z,9.80
2023-03-02T14:13:35.069Z,9.70
2023-03-02T14:16:03.060Z,9.90
2023-03-02T14:18:37.109Z,9.60
2023-03-02T14:21:07.144Z,9.40
2023-03-02T14:23:34.964Z,9.50
2023-03-02T14:26:05.503Z,9.40
2023-03-02T14:28:35.964Z,9.60
2023-03-02T14:31:03.744Z,9.90
2023-03-02T14:33:31.544Z,10.00
2023-03-02T14:36:00.590Z,9.90
2023-03-02T14:38:29.844Z,9.70
2023-03-02T14:40:57.935Z,9.50
2023-03-02T14:43:26.104Z,9.30
2023-03-02T14:45:54.074Z,8.90
2023-03-02T14:48:21.814Z,8.70
2023-03-02T14:50:51.116Z,8.50
2023-03-02T14:53:21.281Z,8.30
2023-03-02T14:55:50.383Z,8.30
2023-03-02T14:58:20.006Z,8.60
2023-03-02T15:00:48.420Z,8.70
2023-03-02T15:03:19.179Z,8.50
2023-03-02T15:06:00.365Z,8.20
2023-03-02T15:08:28.966Z,8.10
2023-03-02T15:10:58.088Z,8.20
2023-03-02T15:13:25.906Z,8.10
2023-03-02T15:15:53.688Z,8.00
2023-03-02T15:18:21.567Z,7.70
2023-03-02T15:20:49.296Z,7.70
2023-03-02T15:23:17.017Z,7.60
2023-03-02T15:25:44.748Z,7.60
2023-03-02T15:28:13.846Z,7.60
2023-03-02T15:30:41.759Z,7.50
2023-03-02T15:33:09.649Z,7.50
2023-03-02T15:35:39.448Z,7.50
2023-03-02T15:38:07.868Z,7.50
2023-03-02T15:40:36.866Z,7.50
2023-03-02T15:43:04.617Z,7.30
2023-03-02T15:45:33.653Z,7.30
2023-03-02T15:48:01.401Z,7.40
2023-03-02T15:50:29.121Z,7.40
2023-03-02T15:52:57.366Z,7.40
2023-03-02T15:55:25.114Z,7.40
2023-03-02T15:57:53.513Z,7.30
2023-03-02T16:00:22.177Z,7.30
2023-03-02T16:02:51.553Z,7.40
2023-03-02T16:05:19.327Z,7.20
2023-03-02T16:07:47.074Z,7.40
2023-03-02T16:10:16.487Z,7.40
2023-03-02T16:12:44.256Z,7.20
2023-03-02T16:15:12.351Z,7.10
2023-03-02T16:17:40.130Z,6.80
2023-03-02T16:20:10.645Z,6.70
2023-03-02T16:22:41.332Z,6.80
2023-03-02T16:25:09.791Z,6.70
2023-03-02T16:27:37.504Z,6.60
2023-03-02T16:30:06.111Z,6.40
2023-03-02T16:32:34.110Z,6.50
2023-03-02T16:35:01.851Z,6.50
2023-03-02T16:37:30.928Z,6.50
2023-03-02T16:39:58.670Z,6.60
2023-03-02T16:42:28.373Z,6.60
2023-03-02T16:44:56.058Z,6.40
2023-03-02T16:47:23.780Z,6.40
2023-03-02T16:49:51.500Z,6.10
2023-03-02T16:52:19.243Z,6.20
2023-03-02T16:54:48.572Z,6.20
2023-03-02T16:57:16.336Z,6.00
2023-03-02T16:59:44.039Z,5.60
2023-03-02T17:02:12.829Z,5.70
2023-03-02T17:04:40.697Z,5.90
2023-03-02T17:07:09.215Z,6.00
2023-03-02T17:09:37.978Z,5.70
2023-03-02T17:12:07.444Z,5.40
2023-03-02T17:14:35.250Z,5.10
2023-03-02T17:17:02.998Z,5.00
2023-03-02T17:19:30.760Z,5.10
2023-03-02T17:21:59.519Z,5.00
2023-03-02T17:24:27.298Z,4.90
2023-03-02T17:26:55.424Z,4.90
2023-03-02T17:29:24.648Z,4.90
2023-03-02T17:31:52.424Z,5.00
2023-03-02T17:34:20.446Z,5.20
2023-03-02T17:36:48.182Z,5.30
2023-03-02T17:39:15.929Z,5.20
2023-03-02T17:41:43.609Z,5.30
2023-03-02T17:44:11.352Z,5.30
2023-03-02T17:46:43.111Z,5.30
2023-03-02T17:49:11.024Z,5.20
2023-03-02T17:51:38.783Z,5.00
2023-03-02T17:54:06.789Z,5.20
2023-03-02T17:56:34.488Z,5.20
2023-03-02T17:59:05.033Z,5.20
2023-03-02T18:01:33.765Z,4.90
2023-03-02T18:04:03.168Z,5.10
2023-03-02T18:06:30.918Z,4.90
2023-03-02T18:08:58.636Z,5.00
2023-03-02T18:11:27.327Z,5.30
2023-03-02T18:13:55.826Z,5.40
2023-03-02T18:16:24.206Z,5.30
2023-03-02T18:18:53.902Z,5.20
2023-03-02T18:21:23.764Z,5.00
2023-03-02T18:23:51.513Z,5.10
2023-03-02T18:26:20.835Z,5.20
2023-03-02T18:28:48.575Z,5.40
2023-03-02T18:31:17.619Z,5.30
2023-03-02T18:33:45.879Z,5.30
2023-03-02T18:36:14.390Z,5.30
2023-03-02T18:38:43.898Z,5.30
2023-03-02T18:41:14.127Z,5.40
2023-03-02T18:43:43.157Z,5.40
2023-03-02T18:46:19.710Z,5.30
2023-03-02T18:48:47.785Z,5.20
2023-03-02T18:51:15.523Z,5.10
2023-03-02T18:53:44.595Z,5.20
2023-03-02T18:56:12.609Z,5.20
2023-03-02T18:58:40.746Z,5.30
2023-03-02T19:01:09.208Z,5.00
2023-03-02T19:03:38.564Z,4.80
2023-03-02T19:06:08.352Z,4.70
2023-03-02T19:08:36.495Z,4.80
2023-03-02T19:11:06.553Z,4.60
2023-03-02T19:13:34.947Z,4.70
2023-03-02T19:16:02.987Z,4.80
2023-03-02T19:18:31.214Z,4.80
2023-03-02T19:20:58.961Z,4.80
2023-03-02T19:23:26.945Z,4.60
2023-03-02T19:25:54.660Z,4.60
2023-03-02T19:28:23.770Z,4.80
2023-03-02T19:30:51.977Z,4.90
2023-03-02T19:33:19.729Z,4.90
2023-03-02T19:35:47.501Z,4.70
2023-03-02T19:38:15.264Z,4.60
2023-03-02T19:40:43.009Z,4.60
2023-03-02T19:43:10.738Z,4.70
2023-03-02T19:45:39.944Z,4.70
2023-03-02T19:48:08.949Z,4.90
2023-03-02T19:50:36.688Z,4.90
2023-03-02T19:53:04.434Z,5.20
2023-03-02T19:55:34.091Z,5.20
2023-03-02T19:58:02.432Z,5.10
2023-03-02T20:00:31.476Z,5.10
2023-03-02T20:03:01.041Z,5.10
2023-03-02T20:05:28.908Z,5.20
2023-03-02T20:07:56.935Z,5.30
2023-03-02T20:10:31.142Z,5.40
2023-03-02T20:12:59.740Z,5.30
2023-03-02T20:15:28.112Z,5.10
2023-03-02T20:17:55.851Z,5.20
2023-03-02T20:20:26.850Z,5.30
2023-03-02T20:22:54.769Z,5.30
2023-03-02T20:25:22.999Z,5.30
2023-03-02T20:27:52.914Z,5.30
2023-03-02T20:30:27.667Z,5.20
2023-03-02T20:32:56.442Z,5.20
2023-03-02T20:35:27.619Z,5.20
2023-03-02T20:37:56.721Z,5.00
2023-03-02T20:40:32.642Z,4.80
2023-03-02T20:43:03.727Z,4.60
2023-03-02T20:45:31.862Z,4.60
2023-03-02T20:47:59.680Z,4.60
2023-03-02T20:50:32.352Z,4.80
2023-03-02T20:53:00.333Z,5.00
2023-03-02T20:55:28.141Z,4.90
2023-03-02T20:57:56.598Z,4.90
2023-03-02T21:00:27.809Z,5.00
2023-03-02T21:02:57.056Z,4.80
2023-03-02T21:05:26.360Z,4.50
2023-03-02T21:07:58.441Z,4.60
2023-03-02T21:10:30.110Z,4.80
2023-03-02T21:12:58.254Z,4.80
2023-03-02T21:15:27.202Z,4.80
2023-03-02T21:17:56.376Z,4.60
2023-03-02T21:20:25.842Z,4.50
2023-03-02T21:22:55.540Z,4.60
2023-03-02T21:25:23.346Z,4.40
2023-03-02T21:27:54.032Z,4.20
2023-03-02T21:30:24.412Z,3.90
2023-03-02T21:32:52.200Z,3.80
2023-03-02T21:35:23.313Z,3.90
2023-03-02T21:37:58.342Z,3.60
2023-03-02T21:40:31.329Z,3.50
2023-03-02T21:43:00.371Z,3.50
2023-03-02T21:45:28.818Z,3.30
2023-03-02T21:47:56.538Z,3.30
2023-03-02T21:50:26.868Z,3.30
2023-03-02T21:52:59.205Z,3.30
2023-03-02T21:55:27.705Z,3.40
2023-03-02T21:57:55.974Z,3.70
2023-03-02T22:00:27.199Z,3.70
2023-03-02T22:02:54.910Z,3.80
2023-03-02T22:05:22.793Z,3.90
2023-03-02T22:07:50.730Z,3.80
2023-03-02T22:10:25.546Z,4.00
2023-03-02T22:12:58.723Z,4.10
2023-03-02T22:15:28.466Z,4.30
2023-03-02T22:17:56.518Z,4.50
2023-03-02T22:20:24.431Z,4.50
2023-03-02T22:22:55.469Z,4.30
2023-03-02T22:25:25.423Z,4.00
2023-03-02T22:27:55.753Z,4.20
2023-03-02T22:30:24.647Z,4.10
2023-03-02T22:32:52.435Z,4.00
2023-03-02T22:35:24.716Z,4.20
2023-03-02T22:37:56.881Z,4.30
2023-03-02T22:40:30.391Z,4.10
2023-03-02T22:43:10.976Z,3.70
2023-03-02T22:45:42.285Z,3.50
2023-03-02T22:48:15.947Z,3.20
2023-03-02T22:50:44.750Z,3.00
2023-03-02T22:53:25.836Z,3.10
2023-03-02T22:56:00.259Z,3.40
2023-03-02T22:58:47.182Z,3.70
2023-03-02T23:01:22.988Z,3.80
2023-03-02T23:03:53.448Z,4.00
2023-03-02T23:06:33.031Z,4.00
2023-03-02T23:09:06.584Z,3.90
2023-03-02T23:11:42.899Z,3.60
2023-03-02T23:14:20.046Z,3.30
2023-03-02T23:16:52.244Z,3.30
2023-03-02T23:19:22.244Z,3.20
2023-03-02T23:21:51.351Z,3.10
2023-03-02T23:24:24.268Z,3.10
2023-03-02T23:27:00.484Z,3.10
2023-03-02T23:29:29.358Z,3.20
2023-03-02T23:32:02.734Z,3.10
2023-03-02T23:34:31.351Z,3.00
2023-03-02T23:36:59.185Z,2.90
2023-03-02T23:39:29.418Z,3.20
2023-03-02T23:42:07.126Z,3.20
2023-03-02T23:44:36.731Z,3.20
2023-03-02T23:47:04.592Z,3.10
2023-03-02T23:49:32.377Z,2.90
2023-03-02T23:52:03.484Z,2.80
2023-03-02T23:54:31.714Z,2.70
2023-03-02T23:57:04.027Z,2.70
2023-03-02T23:59:31.914Z,2.70
